createdAt,value
2023-02-11T00:00:16.206Z,-5.50
2023-02-11T00:02:46.063Z,-6.01
2023-02-11T00:05:14.311Z,-5.77
2023-02-11T00:07:40.873Z,-5.72
2023-02-11T00:10:08.753Z,-5.64
2023-02-11T00:12:37.312Z,-5.60
2023-02-11T00:15:06.050Z,-5.78
2023-02-11T00:17:33.145Z,-5.72
2023-02-11T00:19:59.840Z,-5.81
2023-02-11T00:22:26.528Z,-6.24
2023-02-11T00:24:53.454Z,-5.62
2023-02-11T00:27:20.026Z,-5.75
2023-02-11T00:29:46.661Z,-5.75
2023-02-11T00:32:13.235Z,-6.24
2023-02-11T00:34:39.809Z,-6.08
2023-02-11T00:37:06.597Z,-8.94
2023-02-11T00:39:33.227Z,-5.70
2023-02-11T00:41:59.930Z,-5.77
2023-02-11T00:44:26.642Z,-5.70
2023-02-11T00:46:53.215Z,-5.95
2023-02-11T00:49:19.741Z,-6.27
2023-02-11T00:51:46.396Z,-5.82
2023-02-11T00:54:12.991Z,-5.90
2023-02-11T00:56:39.622Z,-6.03
2023-02-11T00:59:06.335Z,-6.03
2023-02-11T01:01:33.015Z,-6.26
2023-02-11T01:03:59.572Z,-6.72
2023-02-11T01:06:26.165Z,-6.01
2023-02-11T01:08:52.760Z,-5.95
2023-02-11T01:11:20.599Z,-6.00
2023-02-11T01:13:49.145Z,-6.04
2023-02-11T01:16:16.466Z,-8.03
2023-02-11T01:18:44.532Z,-6.75
2023-02-11T01:21:11.884Z,-6.25
2023-02-11T01:23:38.666Z,-6.05
2023-02-11T01:26:06.003Z,-6.07
2023-02-11T01:28:33.345Z,-6.17
2023-02-11T01:31:01.914Z,-6.51
2023-02-11T01:33:28.954Z,-6.65
2023-02-11T01:35:55.558Z,-7.24
2023-02-11T01:38:25.789Z,-6.10
2023-02-11T01:41:04.046Z,-6.03
2023-02-11T01:43:37.258Z,-6.03
2023-02-11T01:46:36.086Z,-6.05
2023-02-11T01:49:09.746Z,-6.10
2023-02-11T01:51:42.455Z,-6.14
2023-02-11T01:54:29.172Z,-6.12
2023-02-11T01:57:17.636Z,-6.49
2023-02-11T02:00:09.682Z,-6.45
2023-02-11T02:03:00.904Z,-6.44
2023-02-11T02:05:39.543Z,-6.38
2023-02-11T02:08:21.741Z,-6.88
2023-02-11T02:10:53.990Z,-6.42
2023-02-11T02:13:21.282Z,-6.42
2023-02-11T02:15:53.822Z,-6.45
2023-02-11T02:18:29.662Z,-9.92
2023-02-11T02:21:30.566Z,-6.65
2023-02-11T02:24:15.911Z,-6.60
2023-02-11T02:27:12.963Z,-6.61
2023-02-11T02:30:08.926Z,-7.74
2023-02-11T02:32:35.476Z,-6.73
2023-02-11T02:35:02.504Z,-6.60
2023-02-11T02:37:38.455Z,-6.58
2023-02-11T02:40:12.398Z,-6.77
2023-02-11T02:42:41.168Z,-6.51
2023-02-11T02:45:09.292Z,-6.61
2023-02-11T02:47:35.866Z,-6.46
2023-02-11T02:50:04.772Z,-6.41
2023-02-11T02:52:49.357Z,-6.36
2023-02-11T02:55:33.995Z,-6.51
2023-02-11T02:58:27.205Z,-6.54
2023-02-11T03:01:18.148Z,-6.53
2023-02-11T03:04:13.328Z,-6.63
2023-02-11T03:06:42.838Z,-6.58
2023-02-11T03:09:20.069Z,-6.59
2023-02-11T03:11:46.612Z,-6.88
2023-02-11T03:14:17.308Z,-6.57
2023-02-11T03:16:46.015Z,-6.62
2023-02-11T03:19:28.270Z,-6.59
2023-02-11T03:21:56.834Z,-6.79
2023-02-11T03:24:35.674Z,-6.71
2023-02-11T03:27:10.786Z,-6.71
2023-02-11T03:29:44.482Z,-6.62
2023-02-11T03:32:17.510Z,-6.65
2023-02-11T03:34:54.968Z,-6.51
2023-02-11T03:37:42.515Z,-6.63
2023-02-11T03:40:15.158Z,-6.68
2023-02-11T03:42:54.199Z,-6.74
2023-02-11T03:45:23.723Z,-7.21
2023-02-11T03:47:56.100Z,-7.05
2023-02-11T03:50:24.103Z,-7.04
2023-02-11T03:52:51.736Z,-7.15
2023-02-11T03:55:20.578Z,-7.18
2023-02-11T03:57:47.910Z,-7.39
2023-02-11T04:00:15.348Z,-7.26
2023-02-11T04:02:43.071Z,-7.52
2023-02-11T04:05:12.659Z,-7.12
2023-02-11T04:07:39.242Z,-7.05
2023-02-11T04:10:06.592Z,-7.45
2023-02-11T04:12:33.160Z,-7.22
2023-02-11T04:14:59.723Z,-7.06
2023-02-11T04:17:26.232Z,-6.96
2023-02-11T04:19:52.765Z,-7.67
2023-02-11T04:22:19.450Z,-7.00
2023-02-11T04:24:46.080Z,-6.92
2023-02-11T04:27:12.762Z,-7.61
2023-02-11T04:29:39.447Z,-6.99
2023-02-11T04:32:06.114Z,-7.05
2023-02-11T04:34:33.440Z,-7.13
2023-02-11T04:37:00.144Z,-7.49
2023-02-11T04:39:26.798Z,-7.12
2023-02-11T04:41:53.356Z,-7.09
2023-02-11T04:44:19.971Z,-7.54
2023-02-11T04:46:46.578Z,-7.13
2023-02-11T04:49:15.434Z,-7.50
2023-02-11T04:51:42.424Z,-7.08
2023-02-11T04:54:09.082Z,-7.39
2023-02-11T04:56:35.692Z,-7.14
2023-02-11T04:59:02.467Z,-7.12
2023-02-11T05:01:29.105Z,-7.37
2023-02-11T05:03:55.880Z,-7.05
2023-02-11T05:06:22.854Z,-7.06
2023-02-11T05:08:49.466Z,-7.09
2023-02-11T05:11:21.056Z,-7.23
2023-02-11T05:13:48.294Z,-7.84
2023-02-11T05:16:16.228Z,-7.19
2023-02-11T05:18:44.030Z,-7.41
2023-02-11T05:21:14.541Z,-7.07
2023-02-11T05:23:41.591Z,-7.09
2023-02-11T05:26:08.703Z,-7.79
2023-02-11T05:28:35.667Z,-7.54
2023-02-11T05:31:02.800Z,-7.67
2023-02-11T05:33:29.460Z,-7.11
2023-02-11T05:36:00.466Z,-7.02
2023-02-11T05:38:27.732Z,-7.62
2023-02-11T05:40:54.689Z,-7.07
2023-02-11T05:43:21.621Z,-7.68
2023-02-11T05:45:48.504Z,-6.95
2023-02-11T05:48:15.903Z,-6.62
2023-02-11T05:50:43.178Z,-6.88
2023-02-11T05:53:09.990Z,-6.57
2023-02-11T05:55:36.963Z,-6.64
2023-02-11T05:58:04.126Z,-6.37
2023-02-11T06:00:31.178Z,-6.61
2023-02-11T06:02:57.953Z,-6.07
2023-02-11T06:05:24.636Z,-5.93
2023-02-11T06:07:51.386Z,-5.72
2023-02-11T06:10:18.018Z,-5.70
2023-02-11T06:12:44.964Z,-5.55
2023-02-11T06:15:11.588Z,-5.42
2023-02-11T06:17:38.181Z,-5.22
2023-02-11T06:20:07.140Z,-5.02
2023-02-11T06:22:35.027Z,-5.07
2023-02-11T06:25:02.431Z,-5.25
2023-02-11T06:27:29.698Z,-5.33
2023-02-11T06:29:56.420Z,-4.81
2023-02-11T06:32:43.464Z,-4.62
2023-02-11T06:35:11.883Z,-4.51
2023-02-11T06:37:38.818Z,-4.22
2023-02-11T06:40:05.864Z,-4.10
2023-02-11T06:42:32.476Z,-3.89
2023-02-11T06:44:59.094Z,-3.71
2023-02-11T06:47:25.717Z,-3.54
2023-02-11T06:49:52.313Z,-3.38
2023-02-11T06:52:18.958Z,-3.14
2023-02-11T06:54:45.551Z,-3.15
2023-02-11T06:57:12.130Z,-3.13
2023-02-11T06:59:38.761Z,-2.95
2023-02-11T07:02:05.355Z,-2.89
2023-02-11T07:04:32.022Z,-2.58
2023-02-11T07:06:58.686Z,-2.98
2023-02-11T07:09:25.299Z,-2.39
2023-02-11T07:11:51.979Z,-4.51
2023-02-11T07:14:18.651Z,-1.87
2023-02-11T07:16:45.212Z,-1.57
2023-02-11T07:19:11.816Z,-1.35
2023-02-11T07:21:38.423Z,-1.17
2023-02-11T07:24:11.096Z,-1.14
2023-02-11T07:26:37.915Z,-0.89
2023-02-11T07:29:04.772Z,-2.28
2023-02-11T07:31:32.105Z,-0.70
2023-02-11T07:34:00.979Z,-0.54
2023-02-11T07:36:29.720Z,-0.40
2023-02-11T07:38:56.557Z,-0.16
2023-02-11T07:41:24.465Z,-0.07
2023-02-11T07:43:51.814Z,-0.29
2023-02-11T07:46:22.297Z,-1.46
2023-02-11T07:48:49.101Z,-0.75
2023-02-11T07:51:24.994Z,-1.31
2023-02-11T07:53:52.509Z,-0.59
2023-02-11T07:56:21.034Z,0.07
2023-02-11T07:58:48.174Z,0.20
2023-02-11T08:01:20.402Z,0.45
2023-02-11T08:03:47.041Z,0.77
2023-02-11T08:06:16.392Z,0.77
2023-02-11T08:08:43.586Z,1.15
2023-02-11T08:11:13.987Z,1.13
2023-02-11T08:13:41.490Z,1.49
2023-02-11T08:16:08.680Z,1.68
2023-02-11T08:18:36.357Z,0.59
2023-02-11T08:21:07.836Z,-0.16
2023-02-11T08:23:38.607Z,0.51
2023-02-11T08:26:07.430Z,0.24
2023-02-11T08:28:38.416Z,0.49
2023-02-11T08:31:16.297Z,1.08
2023-02-11T08:33:43.453Z,1.72
2023-02-11T08:36:11.575Z,2.13
2023-02-11T08:38:38.451Z,1.85
2023-02-11T08:41:05.063Z,2.65
2023-02-11T08:43:33.384Z,2.79
2023-02-11T08:46:02.208Z,3.11
2023-02-11T08:48:29.466Z,3.19
2023-02-11T08:50:56.708Z,3.05
2023-02-11T08:53:24.044Z,3.74
2023-02-11T08:55:52.624Z,3.71
2023-02-11T08:58:20.187Z,4.33
2023-02-11T09:00:47.567Z,3.87
2023-02-11T09:03:17.082Z,4.66
2023-02-11T09:05:50.028Z,4.88
2023-02-11T09:08:17.234Z,4.66
2023-02-11T09:10:44.004Z,4.95
2023-02-11T09:13:10.931Z,5.08
2023-02-11T09:15:37.588Z,4.76
2023-02-11T09:18:05.492Z,4.99
2023-02-11T09:20:32.530Z,4.84
2023-02-11T09:22:59.474Z,5.74
2023-02-11T09:25:26.715Z,5.83
2023-02-11T09:27:53.873Z,5.56
2023-02-11T09:30:21.082Z,6.27
2023-02-11T09:32:47.918Z,6.47
2023-02-11T09:35:14.523Z,6.56
2023-02-11T09:37:41.271Z,6.40
2023-02-11T09:40:08.343Z,6.72
2023-02-11T09:42:51.141Z,7.01
2023-02-11T09:45:22.126Z,7.08
2023-02-11T09:47:54.783Z,6.94
2023-02-11T09:50:30.687Z,6.92
2023-02-11T09:53:15.229Z,7.29
2023-02-11T09:55:46.781Z,7.31
2023-02-11T09:58:16.516Z,7.00
2023-02-11T10:00:57.257Z,6.90
2023-02-11T10:03:58.037Z,7.56
2023-02-11T10:06:39.408Z,7.58
2023-02-11T10:09:25.753Z,7.59
2023-02-11T10:12:01.285Z,7.57
2023-02-11T10:14:54.037Z,7.35
2023-02-11T10:17:20.665Z,7.33
2023-02-11T10:19:56.173Z,7.45
2023-02-11T10:22:35.112Z,7.40
2023-02-11T10:25:23.987Z,6.86
2023-02-11T10:27:52.202Z,6.99
2023-02-11T10:30:21.569Z,7.33
2023-02-11T10:33:04.809Z,7.39
2023-02-11T10:35:32.423Z,7.52
2023-02-11T10:37:59.795Z,7.73
2023-02-11T10:40:28.780Z,7.41
2023-02-11T10:43:01.093Z,8.12
2023-02-11T10:45:36.173Z,8.35
2023-02-11T10:48:27.346Z,8.02
2023-02-11T10:51:27.549Z,7.72
2023-02-11T10:54:08.200Z,7.23
2023-02-11T10:56:37.271Z,6.53
2023-02-11T10:59:28.923Z,7.04
2023-02-11T11:02:07.983Z,5.49
2023-02-11T11:04:39.748Z,7.37
2023-02-11T11:07:16.994Z,6.64
2023-02-11T11:10:02.737Z,6.83
2023-02-11T11:12:35.144Z,7.57
2023-02-11T11:15:13.619Z,7.83
2023-02-11T11:17:40.436Z,7.81
2023-02-11T11:20:33.584Z,7.99
2023-02-11T11:23:17.449Z,8.44
2023-02-11T11:25:58.492Z,8.67
2023-02-11T11:28:27.971Z,8.88
2023-02-11T11:30:57.009Z,9.09
2023-02-11T11:33:28.473Z,9.28
2023-02-11T11:36:02.815Z,9.37
2023-02-11T11:38:31.370Z,9.16
2023-02-11T11:41:34.127Z,9.48
2023-02-11T11:44:24.372Z,9.42
2023-02-11T11:47:07.361Z,9.07
2023-02-11T11:49:39.885Z,8.88
2023-02-11T11:52:12.390Z,8.78
2023-02-11T11:54:41.720Z,8.74
2023-02-11T11:57:17.737Z,7.94
2023-02-11T11:59:44.732Z,7.92
2023-02-11T12:02:50.855Z,8.32
2023-02-11T12:05:35.619Z,8.42
2023-02-11T12:08:13.903Z,8.62
2023-02-11T12:10:50.616Z,8.84
2023-02-11T12:13:23.387Z,8.56
2023-02-11T12:15:57.269Z,7.89
2023-02-11T12:18:47.851Z,7.80
2023-02-11T12:21:33.249Z,8.65
2023-02-11T12:24:30.696Z,8.82
2023-02-11T12:27:09.560Z,8.39
2023-02-11T12:30:01.104Z,7.77
2023-02-11T12:32:39.307Z,5.64
2023-02-11T12:35:34.377Z,8.14
2023-02-11T12:38:11.940Z,8.35
2023-02-11T12:41:40.039Z,8.80
2023-02-11T12:44:15.924Z,9.04
2023-02-11T12:47:05.690Z,8.91
2023-02-11T12:50:09.257Z,9.04
2023-02-11T12:52:45.660Z,8.96
2023-02-11T12:55:37.219Z,8.94
2023-02-11T12:58:04.538Z,8.86
2023-02-11T13:00:36.895Z,8.48
2023-02-11T13:03:11.202Z,8.37
2023-02-11T13:05:46.594Z,8.27
2023-02-11T13:08:36.768Z,8.27
2023-02-11T13:11:16.170Z,8.90
2023-02-11T13:13:45.811Z,9.00
2023-02-11T13:16:27.639Z,9.15
2023-02-11T13:19:30.234Z,9.17
2023-02-11T13:22:05.935Z,9.21
2023-02-11T13:24:57.873Z,8.99
2023-02-11T13:27:41.156Z,8.79
2023-02-11T13:30:40.964Z,8.35
2023-02-11T13:33:17.926Z,8.33
2023-02-11T13:36:12.408Z,8.70
2023-02-11T13:38:39.344Z,8.43
2023-02-11T13:41:30.541Z,8.84
2023-02-11T13:44:22.357Z,8.94
2023-02-11T13:47:01.979Z,8.60
2023-02-11T13:49:42.094Z,8.75
2023-02-11T13:52:20.740Z,8.71
2023-02-11T13:54:51.309Z,8.75
2023-02-11T13:57:20.622Z,8.78
2023-02-11T13:59:50.353Z,8.39
2023-02-11T14:02:35.377Z,8.49
2023-02-11T14:05:23.675Z,8.43
2023-02-11T14:08:30.883Z,7.97
2023-02-11T14:11:35.226Z,8.19
2023-02-11T14:14:24.286Z,8.28
2023-02-11T14:17:00.350Z,8.04
2023-02-11T14:19:34.904Z,8.27
2023-02-11T14:22:06.580Z,8.11
2023-02-11T14:24:33.153Z,8.21
2023-02-11T14:27:07.732Z,8.14
2023-02-11T14:29:42.559Z,8.11
2023-02-11T14:32:49.090Z,8.08
2023-02-11T14:35:34.988Z,7.48
2023-02-11T14:38:01.744Z,7.95
2023-02-11T14:40:34.998Z,7.89
2023-02-11T14:43:13.156Z,7.73
2023-02-11T14:45:40.987Z,7.80
2023-02-11T14:48:18.835Z,7.68
2023-02-11T14:50:58.806Z,7.64
2023-02-11T14:53:27.378Z,7.45
2023-02-11T14:55:55.400Z,7.41
2023-02-11T14:58:23.282Z,7.50
2023-02-11T15:00:53.186Z,7.37
2023-02-11T15:03:42.658Z,7.34
2023-02-11T15:06:22.281Z,7.23
2023-02-11T15:08:55.184Z,7.09
2023-02-11T15:11:25.172Z,7.15
2023-02-11T15:13:55.076Z,6.50
2023-02-11T15:16:27.303Z,6.87
2023-02-11T15:19:03.304Z,6.76
2023-02-11T15:21:32.481Z,6.62
2023-02-11T15:24:26.451Z,6.50
2023-02-11T15:27:21.095Z,6.42
2023-02-11T15:29:50.627Z,6.14
2023-02-11T15:32:19.967Z,5.63
2023-02-11T15:34:48.463Z,5.53
2023-02-11T15:37:35.785Z,5.84
2023-02-11T15:40:20.326Z,5.64
2023-02-11T15:42:58.743Z,5.46
2023-02-11T15:45:29.006Z,5.40
2023-02-11T15:48:08.012Z,5.43
2023-02-11T15:50:37.209Z,5.48
2023-02-11T15:53:33.434Z,5.26
2023-02-11T15:56:11.962Z,4.88
2023-02-11T15:58:41.038Z,4.69
2023-02-11T16:01:09.952Z,4.51
2023-02-11T16:03:36.613Z,3.88
2023-02-11T16:06:20.138Z,4.50
2023-02-11T16:08:56.944Z,4.50
2023-02-11T16:11:27.774Z,4.24
2023-02-11T16:13:54.432Z,4.13
2023-02-11T16:16:31.391Z,3.91
2023-02-11T16:19:05.967Z,3.77
2023-02-11T16:21:42.753Z,3.31
2023-02-11T16:24:20.051Z,2.86
2023-02-11T16:26:50.307Z,3.10
2023-02-11T16:29:22.700Z,2.91
2023-02-11T16:31:50.482Z,2.78
2023-02-11T16:34:22.516Z,2.55
2023-02-11T16:36:50.784Z,2.64
2023-02-11T16:39:19.253Z,2.44
2023-02-11T16:41:45.848Z,2.19
2023-02-11T16:44:12.424Z,2.11
2023-02-11T16:46:39.185Z,-0.86
2023-02-11T16:49:20.645Z,1.17
2023-02-11T16:51:50.238Z,1.95
2023-02-11T16:54:18.779Z,1.79
2023-02-11T16:56:45.413Z,1.76
2023-02-11T16:59:12.254Z,0.91
2023-02-11T17:01:40.552Z,1.62
2023-02-11T17:04:07.513Z,1.26
2023-02-11T17:06:35.078Z,1.47
2023-02-11T17:09:01.940Z,1.46
2023-02-11T17:11:28.565Z,1.38
2023-02-11T17:13:55.192Z,1.26
2023-02-11T17:16:25.046Z,1.18
2023-02-11T17:18:52.694Z,0.97
2023-02-11T17:21:19.312Z,1.04
2023-02-11T17:23:46.126Z,0.35
2023-02-11T17:26:12.868Z,-2.16
2023-02-11T17:28:39.479Z,0.83
2023-02-11T17:31:09.996Z,0.77
2023-02-11T17:33:37.838Z,0.66
2023-02-11T17:36:09.000Z,0.52
2023-02-11T17:38:37.319Z,0.64
2023-02-11T17:41:05.580Z,0.54
2023-02-11T17:43:32.244Z,0.41
2023-02-11T17:45:59.044Z,0.39
2023-02-11T17:48:25.755Z,0.37
2023-02-11T17:50:52.342Z,0.39
2023-02-11T17:53:18.941Z,0.25
2023-02-11T17:55:45.537Z,0.09
2023-02-11T17:58:12.124Z,0.05
2023-02-11T18:00:38.696Z,-0.09
2023-02-11T18:03:05.302Z,-0.12
2023-02-11T18:05:36.716Z,-0.13
2023-02-11T18:08:06.896Z,-0.25
2023-02-11T18:10:34.168Z,-0.64
2023-02-11T18:13:01.376Z,-0.32
2023-02-11T18:15:28.020Z,-0.24
2023-02-11T18:17:55.530Z,-1.01
2023-02-11T18:20:22.165Z,-0.34
2023-02-11T18:22:48.817Z,-0.35
2023-02-11T18:25:16.240Z,-0.39
2023-02-11T18:27:42.980Z,-0.78
2023-02-11T18:30:15.105Z,-0.44
2023-02-11T18:32:41.692Z,-0.39
2023-02-11T18:35:14.767Z,-0.41
2023-02-11T18:37:42.626Z,-0.49
2023-02-11T18:40:11.088Z,-0.68
2023-02-11T18:42:37.833Z,-0.89
2023-02-11T18:45:09.924Z,-0.88
2023-02-11T18:47:40.408Z,-0.72
2023-02-11T18:50:11.266Z,-1.04
2023-02-11T18:52:38.500Z,-0.90
2023-02-11T18:55:06.077Z,-0.85
2023-02-11T18:57:32.752Z,-1.13
2023-02-11T18:59:59.446Z,-0.94
2023-02-11T19:02:26.338Z,-0.93
2023-02-11T19:04:52.984Z,-1.20
2023-02-11T19:07:19.566Z,-1.04
2023-02-11T19:09:46.171Z,-1.10
2023-02-11T19:12:12.814Z,-1.23
2023-02-11T19:14:39.421Z,-1.12
2023-02-11T19:17:07.618Z,-0.94
2023-02-11T19:19:36.582Z,-0.95
2023-02-11T19:22:10.563Z,-0.94
2023-02-11T19:24:38.003Z,-1.06
2023-02-11T19:27:05.199Z,-1.10
2023-02-11T19:29:35.090Z,-1.31
2023-02-11T19:32:03.857Z,-1.46
2023-02-11T19:34:30.496Z,-1.24
2023-02-11T19:36:59.553Z,-1.28
2023-02-11T19:39:26.337Z,-1.24
2023-02-11T19:41:53.551Z,-1.48
2023-02-11T19:44:20.247Z,-1.62
2023-02-11T19:46:48.379Z,-1.34
2023-02-11T19:49:17.643Z,-1.32
2023-02-11T19:51:44.276Z,-1.38
2023-02-11T19:54:10.932Z,-1.52
2023-02-11T19:56:37.992Z,-2.47
2023-02-11T19:59:05.028Z,-1.93
2023-02-11T20:01:31.730Z,-1.67
2023-02-11T20:03:58.484Z,-1.58
2023-02-11T20:06:30.434Z,-1.91
2023-02-11T20:08:59.511Z,-1.67
2023-02-11T20:11:28.214Z,-2.08
2023-02-11T20:13:55.508Z,-1.76
2023-02-11T20:16:36.851Z,-1.70
2023-02-11T20:19:14.946Z,-1.85
2023-02-11T20:21:41.513Z,-1.76
2023-02-11T20:24:08.127Z,-1.75
2023-02-11T20:26:34.980Z,-1.72
2023-02-11T20:29:04.903Z,-1.79
2023-02-11T20:31:35.024Z,-1.96
2023-02-11T20:34:02.124Z,-1.95
2023-02-11T20:36:32.245Z,-1.82
2023-02-11T20:39:00.513Z,-1.87
2023-02-11T20:41:30.888Z,-2.37
2023-02-11T20:43:59.970Z,-1.92
2023-02-11T20:46:28.884Z,-2.35
2023-02-11T20:48:57.198Z,-1.93
2023-02-11T20:51:27.585Z,-1.96
2023-02-11T20:53:54.687Z,-2.55
2023-02-11T20:56:24.526Z,-1.98
2023-02-11T20:58:53.203Z,-2.05
2023-02-11T21:01:25.338Z,-2.06
2023-02-11T21:03:54.906Z,-2.10
2023-02-11T21:06:23.300Z,-2.34
2023-02-11T21:08:50.054Z,-2.05
2023-02-11T21:11:16.728Z,-2.06
2023-02-11T21:13:43.967Z,-2.44
2023-02-11T21:16:17.824Z,-2.18
2023-02-11T21:18:44.426Z,-2.24
2023-02-11T21:21:11.014Z,-2.16
2023-02-11T21:23:41.719Z,-2.06
2023-02-11T21:26:08.576Z,-2.01
2023-02-11T21:28:35.721Z,-2.03
2023-02-11T21:31:02.995Z,-2.01
2023-02-11T21:33:30.398Z,-2.22
2023-02-11T21:36:02.582Z,-2.67
2023-02-11T21:38:29.844Z,-2.16
2023-02-11T21:41:02.028Z,-2.20
2023-02-11T21:43:28.570Z,-2.48
2023-02-11T21:45:55.437Z,-2.23
2023-02-11T21:48:23.862Z,-2.26
2023-02-11T21:50:50.454Z,-2.33
2023-02-11T21:53:17.511Z,-2.41
2023-02-11T21:55:44.225Z,-2.26
2023-02-11T21:58:12.859Z,-2.35
2023-02-11T22:00:39.573Z,-3.26
2023-02-11T22:03:06.239Z,-2.39
2023-02-11T22:05:32.813Z,-3.21
2023-02-11T22:07:59.415Z,-2.32
2023-02-11T22:10:25.995Z,-2.49
2023-02-11T22:12:52.584Z,-2.37
2023-02-11T22:15:19.558Z,-2.55
2023-02-11T22:17:46.177Z,-2.37
2023-02-11T22:20:12.904Z,-2.28
2023-02-11T22:22:39.489Z,-2.46
2023-02-11T22:25:06.498Z,-2.86
2023-02-11T22:27:33.036Z,-2.42
2023-02-11T22:29:59.684Z,-2.40
2023-02-11T22:32:26.384Z,-3.09
2023-02-11T22:34:53.533Z,-3.25
2023-02-11T22:37:20.617Z,-2.43
2023-02-11T22:39:47.324Z,-2.30
2023-02-11T22:42:13.976Z,-2.28
2023-02-11T22:44:40.570Z,-2.30
2023-02-11T22:47:07.218Z,-2.55
2023-02-11T22:49:35.635Z,-2.14
2023-02-11T22:52:02.210Z,-2.01
2023-02-11T22:54:28.969Z,-2.02
2023-02-11T22:56:55.628Z,-2.02
2023-02-11T22:59:22.309Z,-1.90
2023-02-11T23:01:49.097Z,-1.91
2023-02-11T23:04:19.116Z,-1.87
2023-02-11T23:06:47.686Z,-2.17
2023-02-11T23:09:14.376Z,-2.25
2023-02-11T23:11:41.689Z,-1.60
2023-02-11T23:14:10.187Z,-1.68
2023-02-11T23:16:36.868Z,-1.61
2023-02-11T23:19:06.677Z,-1.66
2023-02-11T23:21:37.297Z,-1.67
2023-02-11T23:24:12.178Z,-1.47
2023-02-11T23:26:40.290Z,-1.58
2023-02-11T23:29:06.939Z,-1.41
2023-02-11T23:31:37.486Z,-1.56
2023-02-11T23:34:04.474Z,-1.57
2023-02-11T23:36:31.557Z,-1.52
2023-02-11T23:38:58.843Z,-1.59
2023-02-11T23:41:25.419Z,-1.40
2023-02-11T23:43:54.025Z,-1.41
2023-02-11T23:46:22.313Z,-1.44
2023-02-11T23:48:51.438Z,-1.82
2023-02-11T23:51:18.646Z,-1.56
2023-02-11T23:53:49.389Z,-1.96
2023-02-11T23:56:24.696Z,-1.42
2023-02-11T23:58:54.192Z,-1.38
